Terminal Aerodrome Forecast
Issued by NWS

Current Version | Previous Version | Text Only | Print | Product List | Glossary On
Versions: 1 2 3 4 5 6 7 8 9 10 11 12 13 14
000
FTUS45 KVEF 261738
TAFEED
TAF
KEED 261738Z 2618/2718 VRB06KT P6SM SKC
     FM262000 19010KT P6SM VCTS SCT080CB BKN100
     FM270300 22008KT P6SM FEW100=

USA.gov is the U.S. government's official web portal to all federal, state and local government web resources and services.